Airfield :
LOGIN :

Register | Disclaimer

   EN    FR    IT 

 










Legend :    VFR   Marginal VFR   IFR   Intensive IFR   Very Intensive IFR
Visi :
Ceiling :
>= 8 km
>= 3000ft
5 to 8 km
1000 to 3000 ft
1500m to 5 km
500 to 1000 ft
800 to 1500m
200 to 500 ft
< 800m
< 200 ft
Symbols :   Thunderstorms  Fog  Heavy snow  Heavy precipitations  Wind > 20 kt
SIGMETs :     Misc.  Thunderstorms  Icing  Turbulence  Mountain Waves  Volcanic Ashes






- Airport Elevation : 1460 ft


LSMA - Alpnach

CURRENT METAR :
  • 220350Z AUTO 00000KT 4100NDV BR FEW004 SCT011 BKN013 12/12 Q1023 RMK

EXPIRED METARs :
  • 220320Z AUTO VRB02KT 3900NDV BR SCT007 BKN010 OVC013 12/12 Q1023 RMK
  • 220250Z AUTO 00000KT 1100NDV R01/0800V1900N R19/P2000N BR FEW004 SCT010 BKN013 11/11 Q1022 RMK
  • 220220Z AUTO VRB02KT 2500NDV BR FEW005 BKN160 12/11 Q1022 RMK
  • 220150Z AUTO VRB01KT 4000NDV -RA BR FEW011 SCT026 OVC150 12/12 Q1022 RMK
  • 220120Z AUTO VRB02KT 3700NDV BR SCT010 BKN013 BKN170 12/12 Q1023 RMK

Expired Forecast.



MET'MAP, your aeronautical weather chart ! - Copyright ORBIFLY December 2007 - Disclaimer

ORBIFLY MET'MAP TEAM :

Programming & Development : Alexandra Zaïnal
Concept & Development : Baudouin d'Aumeries
Co-Development & Prog : Marc-Olivier Méhu
Technical & hardware support : Manuel Goepfert

Contact : metmap@orbifly.com




SOURCES & CREDITS :

   NOAA